Time;durP1;ratioP1;P1;durP2;ratioP2;P2;SDS_P1;SDS_P2;PMS_P1;PMS_P2;Temp;Humidity;BMP_temperature;BMP_pressure;BME280_temperature;BME280_humidity;BME280_pressure;Samples;Min_cycle;Max_cycle;Signal;HPM_P1;HPM_P2
2022/04/23 00:01:49;;;;;;;17.50;9.07;;;;;;;;;;751060;184;919236;-63
2022/04/23 00:04:15;;;;;;;21.27;13.40;;;;;;;;;;763800;183;918830;-64
2022/04/23 00:06:43;;;;;;;27.43;13.63;;;;;;;;;;756881;183;919441;-64
2022/04/23 00:09:07;;;;;;;21.30;12.07;;;;;;;;;;748208;188;919280;-62
2022/04/23 00:11:34;;;;;;;16.40;10.00;;;;;;;;;;758065;183;919102;-63
2022/04/23 00:14:00;;;;;;;18.37;11.50;;;;;;;;;;742113;187;918214;-63
2022/04/23 00:16:25;;;;;;;17.10;8.57;;;;;;;;;;733719;187;918831;-63
2022/04/23 00:18:51;;;;;;;16.58;10.43;;;;;;;;;;739489;187;1021379;-64
2022/04/23 00:21:18;;;;;;;19.00;12.70;;;;;;;;;;746103;184;918756;-62
2022/04/23 00:23:43;;;;;;;22.27;12.90;;;;;;;;;;741493;187;918818;-63
2022/04/23 00:26:08;;;;;;;22.57;14.00;;;;;;;;;;740977;188;917935;-63
2022/04/23 00:28:34;;;;;;;16.10;9.93;;;;;;;;;;742585;188;919551;-63
2022/04/23 00:31:00;;;;;;;19.50;13.00;;;;;;;;;;747298;184;919425;-62
2022/04/23 00:33:26;;;;;;;18.80;11.93;;;;;;;;;;747642;185;919303;-62
2022/04/23 00:35:52;;;;;;;19.13;12.60;;;;;;;;;;759231;184;919328;-63
2022/04/23 00:38:18;;;;;;;19.20;11.37;;;;;;;;;;757770;184;919568;-63
2022/04/23 00:40:44;;;;;;;18.93;12.33;;;;;;;;;;754521;184;919076;-63
2022/04/23 00:43:28;;;;;;;18.30;10.73;;;;;;;;;;748545;185;918424;-63
2022/04/23 00:45:54;;;;;;;21.30;12.90;;;;;;;;;;748516;185;918714;-64
2022/04/23 00:48:21;;;;;;;21.13;13.13;;;;;;;;;;754253;185;920785;-63
2022/04/23 00:50:46;;;;;;;18.40;13.23;;;;;;;;;;751440;185;920038;-63
2022/04/23 00:53:12;;;;;;;24.20;12.80;;;;;;;;;;757140;184;917917;-63
2022/04/23 00:55:37;;;;;;;18.27;12.77;;;;;;;;;;768586;183;919426;-63
2022/04/23 00:58:03;;;;;;;22.27;14.37;;;;;;;;;;766320;182;920093;-63
2022/04/23 01:00:29;;;;;;;22.33;10.97;;;;;;;;;;748587;186;919027;-62
2022/04/23 01:02:55;;;;;;;17.90;11.37;;;;;;;;;;757922;184;918460;-63
2022/04/23 01:05:23;;;;;;;16.43;11.30;;;;;;;;;;749052;185;918967;-63
2022/04/23 01:07:47;;;;;;;21.27;12.30;;;;;;;;;;750416;184;918752;-63
2022/04/23 01:10:12;;;;;;;20.83;12.93;;;;;;;;;;752012;184;919145;-62
2022/04/23 01:12:38;;;;;;;26.03;14.47;;;;;;;;;;763204;184;918626;-64
2022/04/23 01:15:05;;;;;;;17.37;11.20;;;;;;;;;;757677;184;919474;-63
2022/04/23 01:17:31;;;;;;;23.90;11.63;;;;;;;;;;755631;184;918614;-61
2022/04/23 01:19:56;;;;;;;22.90;14.70;;;;;;;;;;762970;184;918714;-64
2022/04/23 01:22:23;;;;;;;22.40;11.90;;;;;;;;;;751378;184;919955;-62
2022/04/23 01:24:50;;;;;;;18.90;10.80;;;;;;;;;;749342;184;918934;-63
2022/04/23 01:27:14;;;;;;;21.03;12.47;;;;;;;;;;756709;184;917507;-64
2022/04/23 01:29:40;;;;;;;20.50;12.85;;;;;;;;;;750034;184;920051;-62
2022/04/23 01:32:06;;;;;;;22.00;10.43;;;;;;;;;;751747;185;919971;-62
2022/04/23 01:34:32;;;;;;;20.97;12.47;;;;;;;;;;759630;184;917797;-63
2022/04/23 01:36:58;;;;;;;22.63;12.73;;;;;;;;;;761803;183;917472;-64
2022/04/23 01:39:24;;;;;;;18.13;11.43;;;;;;;;;;759861;183;919144;-63
2022/04/23 01:41:50;;;;;;;18.67;11.03;;;;;;;;;;752687;179;915774;-62
2022/04/23 01:44:15;;;;;;;22.60;13.90;;;;;;;;;;756395;185;919655;-62
2022/04/23 01:46:41;;;;;;;23.40;15.37;;;;;;;;;;757251;185;918146;-65
2022/04/23 01:49:07;;;;;;;19.57;10.87;;;;;;;;;;753067;185;919467;-63
2022/04/23 01:51:33;;;;;;;25.00;14.00;;;;;;;;;;758083;184;919295;-62
2022/04/23 01:54:00;;;;;;;22.47;10.10;;;;;;;;;;759250;184;918543;-62
2022/04/23 01:56:26;;;;;;;15.57;8.63;;;;;;;;;;761680;183;918299;-63
2022/04/23 01:58:51;;;;;;;20.17;14.27;;;;;;;;;;764425;183;920434;-62
2022/04/23 02:01:17;;;;;;;27.53;14.80;;;;;;;;;;762228;184;943101;-62
2022/04/23 02:03:43;;;;;;;23.57;14.37;;;;;;;;;;750205;184;919835;-63
2022/04/23 02:06:09;;;;;;;28.60;17.43;;;;;;;;;;755344;184;919454;-63
2022/04/23 02:08:35;;;;;;;32.57;14.70;;;;;;;;;;764112;183;919632;-63
2022/04/23 02:11:01;;;;;;;23.30;15.57;;;;;;;;;;751973;183;1020760;-62
2022/04/23 02:13:27;;;;;;;26.30;15.80;;;;;;;;;;752926;183;919581;-62
2022/04/23 02:15:53;;;;;;;24.80;15.17;;;;;;;;;;760460;183;917857;-63
2022/04/23 02:18:21;;;;;;;27.67;16.53;;;;;;;;;;742884;189;919347;-63
2022/04/23 02:20:45;;;;;;;28.33;19.60;;;;;;;;;;749021;185;918773;-64
2022/04/23 02:23:11;;;;;;;26.50;14.97;;;;;;;;;;765449;183;919105;-62
2022/04/23 02:25:37;;;;;;;30.60;15.77;;;;;;;;;;766335;183;919587;-63
2022/04/23 02:28:03;;;;;;;25.02;17.90;;;;;;;;;;748438;184;919248;-63
2022/04/23 02:30:28;;;;;;;29.00;15.80;;;;;;;;;;747808;185;918357;-63
2022/04/23 02:32:54;;;;;;;31.57;19.17;;;;;;;;;;752168;185;917915;-63
2022/04/23 02:35:20;;;;;;;26.63;18.23;;;;;;;;;;744683;189;918933;-63
2022/04/23 02:37:46;;;;;;;29.07;17.50;;;;;;;;;;743749;185;920068;-62
2022/04/23 02:40:12;;;;;;;32.53;20.40;;;;;;;;;;747434;189;1132164;-63
2022/04/23 02:42:38;;;;;;;33.23;18.97;;;;;;;;;;753720;184;920102;-63
2022/04/23 02:45:05;;;;;;;31.80;19.07;;;;;;;;;;760281;183;918841;-64
2022/04/23 02:47:31;;;;;;;28.57;17.93;;;;;;;;;;759766;183;919496;-63
2022/04/23 02:49:57;;;;;;;29.53;18.90;;;;;;;;;;747438;187;919110;-64
2022/04/23 02:52:23;;;;;;;26.73;18.90;;;;;;;;;;757588;184;918991;-62
2022/04/23 02:54:50;;;;;;;31.10;19.67;;;;;;;;;;755913;185;919817;-62
2022/04/23 02:57:16;;;;;;;33.15;19.62;;;;;;;;;;757312;184;918651;-62
2022/04/23 02:59:40;;;;;;;34.60;21.50;;;;;;;;;;758418;184;919396;-62
2022/04/23 03:02:06;;;;;;;32.03;20.70;;;;;;;;;;752958;185;942748;-62
2022/04/23 03:04:32;;;;;;;42.23;24.50;;;;;;;;;;763983;184;918370;-62
2022/04/23 03:06:58;;;;;;;42.37;23.73;;;;;;;;;;758483;184;920350;-62
2022/04/23 03:09:23;;;;;;;45.07;23.40;;;;;;;;;;759935;183;1022472;-63
2022/04/23 03:11:50;;;;;;;41.77;25.63;;;;;;;;;;766549;183;919184;-62
2022/04/23 03:14:16;;;;;;;39.37;23.13;;;;;;;;;;762056;184;915361;-62
2022/04/23 03:16:42;;;;;;;44.17;25.23;;;;;;;;;;748886;184;1005935;-62
2022/04/23 03:19:08;;;;;;;38.23;23.90;;;;;;;;;;752052;184;916034;-63
2022/04/23 03:21:34;;;;;;;41.87;25.33;;;;;;;;;;755580;183;919671;-63
2022/04/23 03:24:00;;;;;;;40.30;22.83;;;;;;;;;;757671;183;919941;-62
2022/04/23 03:26:26;;;;;;;44.00;24.60;;;;;;;;;;760964;183;918297;-63
2022/04/23 03:28:51;;;;;;;42.00;25.60;;;;;;;;;;751277;184;919685;-64
2022/04/23 03:31:17;;;;;;;42.37;24.50;;;;;;;;;;753506;184;919068;-63
2022/04/23 03:33:44;;;;;;;42.25;24.33;;;;;;;;;;758889;184;918275;-63
2022/04/23 03:36:09;;;;;;;42.03;26.53;;;;;;;;;;763431;184;918766;-64
2022/04/23 03:38:35;;;;;;;45.03;27.50;;;;;;;;;;754517;184;920167;-63
2022/04/23 03:41:01;;;;;;;41.47;24.30;;;;;;;;;;753909;184;918846;-62
2022/04/23 03:43:26;;;;;;;39.80;23.03;;;;;;;;;;756017;184;918978;-63
2022/04/23 03:45:52;;;;;;;46.70;28.20;;;;;;;;;;764947;184;918521;-63
2022/04/23 03:48:18;;;;;;;47.83;29.40;;;;;;;;;;762582;183;918838;-62
2022/04/23 03:50:44;;;;;;;49.83;29.43;;;;;;;;;;746925;183;2044877;-62
2022/04/23 03:53:11;;;;;;;46.72;28.65;;;;;;;;;;761098;184;1022308;-62
2022/04/23 03:55:36;;;;;;;56.77;31.47;;;;;;;;;;755619;184;919064;-63
2022/04/23 03:58:02;;;;;;;46.50;25.33;;;;;;;;;;751715;183;917990;-64
2022/04/23 04:00:28;;;;;;;43.13;25.40;;;;;;;;;;760497;184;918686;-63
2022/04/23 04:02:53;;;;;;;57.60;31.43;;;;;;;;;;756111;184;918249;-64
2022/04/23 04:05:19;;;;;;;52.97;30.20;;;;;;;;;;754894;184;920077;-63
2022/04/23 04:07:45;;;;;;;54.00;31.80;;;;;;;;;;754022;184;920066;-63
2022/04/23 04:10:11;;;;;;;55.55;31.55;;;;;;;;;;765542;181;918365;-63
2022/04/23 04:12:37;;;;;;;53.47;30.40;;;;;;;;;;750740;184;1022134;-63
2022/04/23 04:15:03;;;;;;;54.40;32.73;;;;;;;;;;748225;185;920290;-62
2022/04/23 04:17:29;;;;;;;50.73;29.07;;;;;;;;;;754566;184;919666;-63
2022/04/23 04:19:55;;;;;;;59.63;33.43;;;;;;;;;;753256;183;919541;-62
2022/04/23 04:22:21;;;;;;;52.83;34.07;;;;;;;;;;754515;184;919656;-62
2022/04/23 04:24:47;;;;;;;52.90;27.27;;;;;;;;;;762627;184;918985;-62
2022/04/23 04:27:13;;;;;;;53.10;32.10;;;;;;;;;;754091;184;919192;-63
2022/04/23 04:29:38;;;;;;;52.37;30.23;;;;;;;;;;758794;182;1004301;-63
2022/04/23 04:32:07;;;;;;;51.43;26.13;;;;;;;;;;764238;182;919281;-62
2022/04/23 04:34:30;;;;;;;58.93;36.90;;;;;;;;;;750629;184;919790;-62
2022/04/23 04:37:03;;;;;;;110.23;61.37;;;;;;;;;;752443;183;919460;-63
2022/04/23 04:39:28;;;;;;;57.63;35.23;;;;;;;;;;757361;184;921851;-64
2022/04/23 04:41:54;;;;;;;48.15;31.12;;;;;;;;;;763087;184;918436;-63
2022/04/23 04:44:20;;;;;;;60.23;33.60;;;;;;;;;;759254;184;919232;-64
2022/04/23 04:46:46;;;;;;;44.40;26.50;;;;;;;;;;759177;184;917210;-64
2022/04/23 04:49:12;;;;;;;38.73;22.90;;;;;;;;;;762861;184;919186;-62
2022/04/23 04:51:39;;;;;;;47.23;34.00;;;;;;;;;;760147;184;941088;-63
2022/04/23 04:54:05;;;;;;;45.37;27.90;;;;;;;;;;759909;184;919756;-63
2022/04/23 04:56:31;;;;;;;39.13;23.52;;;;;;;;;;757891;184;918271;-61
2022/04/23 04:58:56;;;;;;;48.57;26.10;;;;;;;;;;756104;184;919774;-62
2022/04/23 05:01:22;;;;;;;43.00;28.60;;;;;;;;;;751714;184;920045;-63
2022/04/23 05:03:48;;;;;;;55.03;25.00;;;;;;;;;;757538;183;918256;-63
2022/04/23 05:06:14;;;;;;;45.70;24.90;;;;;;;;;;761343;185;919912;-63
2022/04/23 05:08:40;;;;;;;43.23;24.77;;;;;;;;;;748370;185;918890;-63
2022/04/23 05:11:06;;;;;;;41.03;26.17;;;;;;;;;;747987;184;920090;-63
2022/04/23 05:13:32;;;;;;;36.67;22.17;;;;;;;;;;759870;183;918744;-63
2022/04/23 05:15:58;;;;;;;48.15;29.87;;;;;;;;;;754293;184;920092;-63
2022/04/23 05:18:23;;;;;;;52.17;28.87;;;;;;;;;;755036;184;1026911;-62
2022/04/23 05:20:49;;;;;;;61.63;31.93;;;;;;;;;;754467;184;919470;-62
2022/04/23 05:23:15;;;;;;;54.00;33.03;;;;;;;;;;760308;183;918587;-62
2022/04/23 05:25:41;;;;;;;61.13;31.57;;;;;;;;;;752733;184;916573;-62
2022/04/23 05:28:07;;;;;;;51.17;29.47;;;;;;;;;;754167;184;927245;-63
2022/04/23 05:30:32;;;;;;;46.97;26.30;;;;;;;;;;761767;183;916058;-64
2022/04/23 05:32:58;;;;;;;45.23;29.30;;;;;;;;;;753974;183;919007;-61
2022/04/23 05:35:24;;;;;;;41.50;22.75;;;;;;;;;;756270;183;914977;-62
2022/04/23 05:37:50;;;;;;;42.10;23.17;;;;;;;;;;761739;184;917515;-63
2022/04/23 05:40:16;;;;;;;40.97;25.27;;;;;;;;;;757840;183;923317;-63
2022/04/23 05:42:42;;;;;;;39.40;23.07;;;;;;;;;;758147;182;919259;-63
2022/04/23 05:45:08;;;;;;;43.85;25.83;;;;;;;;;;758053;182;917136;-62
2022/04/23 05:47:34;;;;;;;39.10;18.77;;;;;;;;;;759294;182;931509;-63
2022/04/23 05:50:00;;;;;;;30.07;20.87;;;;;;;;;;751497;182;918301;-63
2022/04/23 05:52:26;;;;;;;32.23;20.63;;;;;;;;;;750931;184;614112;-63
2022/04/23 05:54:52;;;;;;;31.93;18.87;;;;;;;;;;753939;185;914937;-64
2022/04/23 05:57:18;;;;;;;34.07;18.37;;;;;;;;;;749978;184;918108;-63
2022/04/23 05:59:43;;;;;;;35.30;19.73;;;;;;;;;;749738;185;915643;-63
2022/04/23 06:02:13;;;;;;;35.60;22.37;;;;;;;;;;760365;184;919062;-63
2022/04/23 06:04:35;;;;;;;44.00;24.67;;;;;;;;;;755172;184;919701;-62
2022/04/23 06:07:01;;;;;;;30.48;17.20;;;;;;;;;;755516;184;918007;-62
2022/04/23 06:09:27;;;;;;;51.03;28.90;;;;;;;;;;760360;184;919590;-63
2022/04/23 06:11:53;;;;;;;44.30;26.67;;;;;;;;;;754366;184;918495;-64
2022/04/23 06:14:18;;;;;;;39.83;21.57;;;;;;;;;;758093;184;918464;-63
2022/04/23 06:16:44;;;;;;;43.67;27.52;;;;;;;;;;755022;184;917862;-63
2022/04/23 06:19:10;;;;;;;21.20;15.83;;;;;;;;;;759415;184;918758;-63
2022/04/23 06:21:36;;;;;;;42.60;25.70;;;;;;;;;;758517;183;919354;-63
2022/04/23 06:24:02;;;;;;;41.90;24.63;;;;;;;;;;749641;184;925289;-64
2022/04/23 06:26:28;;;;;;;45.83;26.50;;;;;;;;;;761128;184;919115;-63
2022/04/23 06:28:55;;;;;;;42.80;24.90;;;;;;;;;;754441;183;954339;-63
2022/04/23 06:31:20;;;;;;;29.90;17.57;;;;;;;;;;750311;185;918985;-63
2022/04/23 06:33:45;;;;;;;33.47;16.73;;;;;;;;;;754565;184;918456;-62
2022/04/23 06:36:13;;;;;;;36.65;21.62;;;;;;;;;;750365;185;919055;-64
2022/04/23 06:38:37;;;;;;;43.00;26.63;;;;;;;;;;756877;184;920427;-64
2022/04/23 06:41:03;;;;;;;32.80;19.63;;;;;;;;;;755084;183;918160;-63
2022/04/23 06:43:29;;;;;;;34.57;19.77;;;;;;;;;;747187;184;918973;-63
2022/04/23 06:45:54;;;;;;;32.50;20.87;;;;;;;;;;749488;183;919056;-63
2022/04/23 06:48:20;;;;;;;38.03;24.35;;;;;;;;;;747454;186;919461;-62
2022/04/23 06:50:46;;;;;;;40.60;22.03;;;;;;;;;;760211;184;1020154;-63
2022/04/23 06:53:12;;;;;;;38.83;23.73;;;;;;;;;;756891;183;918387;-64
2022/04/23 06:55:38;;;;;;;34.03;21.50;;;;;;;;;;756628;183;919241;-64
2022/04/23 06:58:04;;;;;;;32.70;18.40;;;;;;;;;;765603;182;919711;-65
2022/04/23 07:00:30;;;;;;;32.88;19.58;;;;;;;;;;755272;184;919405;-63
2022/04/23 07:02:55;;;;;;;31.20;21.13;;;;;;;;;;755998;183;926815;-63
2022/04/23 07:05:21;;;;;;;20.33;12.17;;;;;;;;;;762127;183;922871;-64
2022/04/23 07:07:53;;;;;;;31.40;21.30;;;;;;;;;;754799;184;919497;-64
2022/04/23 07:10:19;;;;;;;31.47;18.67;;;;;;;;;;756698;183;918462;-62
2022/04/23 07:12:45;;;;;;;24.73;17.03;;;;;;;;;;758498;183;919298;-62
2022/04/23 07:15:11;;;;;;;34.63;19.60;;;;;;;;;;762509;184;918986;-63
2022/04/23 07:17:36;;;;;;;37.60;20.20;;;;;;;;;;755245;184;918410;-63
2022/04/23 07:20:02;;;;;;;29.90;18.77;;;;;;;;;;758019;183;919856;-64
2022/04/23 07:22:28;;;;;;;23.93;13.53;;;;;;;;;;762877;184;892770;-62
2022/04/23 07:24:54;;;;;;;23.30;15.13;;;;;;;;;;757000;184;922614;-64
2022/04/23 07:27:20;;;;;;;27.73;17.67;;;;;;;;;;752619;184;919459;-64
2022/04/23 07:29:46;;;;;;;25.90;16.43;;;;;;;;;;753499;184;632389;-64
2022/04/23 07:32:12;;;;;;;27.40;14.37;;;;;;;;;;763463;184;908664;-64
2022/04/23 07:39:41;;;;;;;28.60;17.80;;;;;;;;;;758248;183;912116;-65
2022/04/23 07:42:07;;;;;;;36.37;18.37;;;;;;;;;;763322;184;911868;-65
2022/04/23 07:44:33;;;;;;;28.50;18.00;;;;;;;;;;756246;184;915937;-63
2022/04/23 07:46:58;;;;;;;17.23;10.80;;;;;;;;;;760623;184;907762;-64
2022/04/23 07:49:24;;;;;;;22.58;15.57;;;;;;;;;;759593;184;860628;-64
2022/04/23 07:51:50;;;;;;;27.40;16.03;;;;;;;;;;754340;183;915526;-64
2022/04/23 07:54:16;;;;;;;25.93;15.60;;;;;;;;;;754373;184;919074;-65
2022/04/23 07:56:42;;;;;;;24.13;12.47;;;;;;;;;;766107;183;1021103;-67
2022/04/23 07:59:08;;;;;;;36.20;20.57;;;;;;;;;;757466;183;919716;-65
2022/04/23 08:01:33;;;;;;;27.17;18.33;;;;;;;;;;754591;184;939534;-65
2022/04/23 08:04:02;;;;;;;17.83;10.50;;;;;;;;;;753774;182;918051;-65
2022/04/23 08:06:25;;;;;;;15.63;10.20;;;;;;;;;;758692;183;918374;-65
2022/04/23 08:08:51;;;;;;;22.80;13.80;;;;;;;;;;745145;187;1021150;-65
2022/04/23 08:11:17;;;;;;;23.93;16.17;;;;;;;;;;749483;184;919575;-66
2022/04/23 08:13:43;;;;;;;16.37;10.70;;;;;;;;;;759043;184;915686;-65
2022/04/23 08:16:09;;;;;;;17.37;11.17;;;;;;;;;;752658;184;918692;-64
2022/04/23 08:18:35;;;;;;;28.97;12.50;;;;;;;;;;753636;184;1051309;-64
2022/04/23 08:21:00;;;;;;;26.47;13.57;;;;;;;;;;760866;183;918933;-65
2022/04/23 08:23:26;;;;;;;21.07;14.43;;;;;;;;;;756179;184;919974;-64
2022/04/23 08:25:55;;;;;;;25.50;17.70;;;;;;;;;;758779;184;917786;-65
2022/04/23 08:30:49;;;;;;;19.50;11.60;;;;;;;;;;754128;184;921500;-65
2022/04/23 08:33:15;;;;;;;19.07;9.70;;;;;;;;;;739093;184;919645;-66
2022/04/23 08:35:41;;;;;;;15.30;10.63;;;;;;;;;;752760;184;1020730;-64
2022/04/23 08:38:07;;;;;;;17.33;11.70;;;;;;;;;;760250;184;918989;-65
2022/04/23 08:40:35;;;;;;;20.33;12.63;;;;;;;;;;752772;184;922920;-65
2022/04/23 08:43:01;;;;;;;18.93;12.50;;;;;;;;;;753804;183;919442;-65
2022/04/23 08:45:26;;;;;;;17.95;10.93;;;;;;;;;;759627;183;919654;-65
2022/04/23 08:47:52;;;;;;;22.60;12.43;;;;;;;;;;748910;186;917961;-63
2022/04/23 08:50:20;;;;;;;18.83;12.60;;;;;;;;;;752416;183;918809;-65
2022/04/23 08:52:46;;;;;;;20.57;14.27;;;;;;;;;;746070;187;919701;-66
2022/04/23 08:55:14;;;;;;;15.03;10.73;;;;;;;;;;752042;184;919066;-66
2022/04/23 08:57:38;;;;;;;17.47;11.20;;;;;;;;;;749253;184;916800;-65
2022/04/23 09:00:08;;;;;;;18.00;10.87;;;;;;;;;;755293;184;929746;-64
2022/04/23 09:02:31;;;;;;;19.60;10.80;;;;;;;;;;761024;183;919507;-63
2022/04/23 09:04:56;;;;;;;17.57;10.07;;;;;;;;;;743431;185;896523;-65
2022/04/23 09:07:21;;;;;;;24.50;12.87;;;;;;;;;;757629;184;918067;-66
2022/04/23 09:09:47;;;;;;;16.97;11.33;;;;;;;;;;757576;184;918580;-65
2022/04/23 09:12:13;;;;;;;11.67;8.07;;;;;;;;;;757428;184;976978;-64
2022/04/23 09:14:39;;;;;;;19.30;8.07;;;;;;;;;;752098;184;919861;-65
2022/04/23 09:24:45;;;;;;;12.93;8.13;;;;;;;;;;756552;182;917475;-64
2022/04/23 09:27:11;;;;;;;14.20;9.00;;;;;;;;;;755615;184;919753;-66
2022/04/23 09:29:37;;;;;;;14.43;8.77;;;;;;;;;;755606;184;918859;-64
2022/04/23 09:32:08;;;;;;;13.30;9.10;;;;;;;;;;759223;184;918704;-64
2022/04/23 09:34:33;;;;;;;10.90;6.60;;;;;;;;;;749903;184;919332;-63
2022/04/23 09:37:00;;;;;;;14.77;9.70;;;;;;;;;;747942;184;1020986;-63
2022/04/23 09:39:27;;;;;;;15.70;8.83;;;;;;;;;;755008;185;919660;-63
2022/04/23 09:41:53;;;;;;;16.77;8.97;;;;;;;;;;724540;191;921932;-63
2022/04/23 09:44:19;;;;;;;15.90;10.30;;;;;;;;;;736074;188;919940;-62
2022/04/23 09:46:45;;;;;;;21.20;14.73;;;;;;;;;;721155;191;926339;-63
2022/04/23 09:49:12;;;;;;;13.37;7.13;;;;;;;;;;739118;187;919987;-65
2022/04/23 09:51:36;;;;;;;16.40;10.33;;;;;;;;;;723999;192;919514;-65
2022/04/23 09:54:02;;;;;;;11.70;6.97;;;;;;;;;;748022;184;919774;-62
2022/04/23 09:56:28;;;;;;;15.82;7.97;;;;;;;;;;759205;183;921046;-65
2022/04/23 09:58:54;;;;;;;16.37;8.87;;;;;;;;;;752901;184;919413;-66
2022/04/23 10:01:20;;;;;;;11.67;7.07;;;;;;;;;;753716;181;1021551;-64
2022/04/23 10:03:46;;;;;;;11.50;7.47;;;;;;;;;;762205;183;926775;-64
2022/04/23 10:06:11;;;;;;;16.00;9.80;;;;;;;;;;741033;188;915477;-65
2022/04/23 10:08:41;;;;;;;15.33;9.30;;;;;;;;;;751457;184;921255;-65
2022/04/23 10:11:21;;;;;;;12.20;8.00;;;;;;;;;;762442;184;620156;-65
2022/04/23 10:13:47;;;;;;;15.50;8.03;;;;;;;;;;756672;183;923491;-64
2022/04/23 10:16:14;;;;;;;13.95;8.65;;;;;;;;;;757378;184;919796;-64
2022/04/23 10:18:39;;;;;;;16.50;9.13;;;;;;;;;;754434;184;921045;-65
2022/04/23 10:21:08;;;;;;;16.47;8.77;;;;;;;;;;754406;183;917671;-64
2022/04/23 10:23:47;;;;;;;11.77;7.80;;;;;;;;;;759749;184;916013;-64
2022/04/23 10:26:15;;;;;;;14.80;10.37;;;;;;;;;;762203;182;918784;-65
2022/04/23 10:28:41;;;;;;;14.47;9.90;;;;;;;;;;758567;182;917067;-65
2022/04/23 10:31:10;;;;;;;10.07;6.25;;;;;;;;;;761805;183;913907;-66
2022/04/23 10:33:36;;;;;;;13.07;8.80;;;;;;;;;;759703;183;918773;-64
2022/04/23 10:36:08;;;;;;;12.57;7.70;;;;;;;;;;757353;186;918554;-64
2022/04/23 10:38:30;;;;;;;12.47;7.77;;;;;;;;;;762964;183;816525;-65
2022/04/23 10:40:56;;;;;;;11.77;7.12;;;;;;;;;;752186;184;918477;-68
2022/04/23 10:43:22;;;;;;;11.70;9.03;;;;;;;;;;758571;183;1021232;-66
2022/04/23 10:45:48;;;;;;;16.00;10.20;;;;;;;;;;751100;183;919676;-66
2022/04/23 10:48:23;;;;;;;12.30;7.12;;;;;;;;;;761397;184;918447;-63
2022/04/23 10:50:54;;;;;;;14.83;9.90;;;;;;;;;;759124;184;918689;-66
2022/04/23 10:53:20;;;;;;;14.20;9.30;;;;;;;;;;765650;183;917238;-65
2022/04/23 10:55:52;;;;;;;17.87;9.07;;;;;;;;;;753892;183;919772;-65
2022/04/23 10:58:19;;;;;;;13.47;10.57;;;;;;;;;;762576;183;919193;-65
2022/04/23 11:00:45;;;;;;;13.10;8.00;;;;;;;;;;760795;183;919176;-66
2022/04/23 11:03:10;;;;;;;13.17;9.30;;;;;;;;;;762426;184;918296;-66
2022/04/23 11:13:35;;;;;;;13.83;9.13;;;;;;;;;;750980;184;918792;-65
2022/04/23 11:16:06;;;;;;;19.00;11.70;;;;;;;;;;753652;184;918026;-66
2022/04/23 11:18:33;;;;;;;15.80;8.60;;;;;;;;;;761145;184;919002;-66
2022/04/23 11:20:58;;;;;;;18.03;11.60;;;;;;;;;;757246;183;919937;-67
2022/04/23 11:23:24;;;;;;;13.13;8.23;;;;;;;;;;756230;184;919696;-67
2022/04/23 11:25:55;;;;;;;18.93;14.40;;;;;;;;;;759454;184;919037;-67
2022/04/23 11:28:21;;;;;;;22.83;10.40;;;;;;;;;;763236;183;920509;-66
2022/04/23 11:30:45;;;;;;;19.83;11.97;;;;;;;;;;754975;184;917885;-65
2022/04/23 11:33:12;;;;;;;18.98;11.63;;;;;;;;;;753948;184;918073;-65
2022/04/23 11:35:37;;;;;;;17.33;9.80;;;;;;;;;;756851;183;918964;-66
2022/04/23 11:38:03;;;;;;;18.73;10.37;;;;;;;;;;760245;183;919996;-67
2022/04/23 11:40:29;;;;;;;10.90;7.03;;;;;;;;;;757130;183;919456;-67
2022/04/23 11:42:56;;;;;;;16.63;11.30;;;;;;;;;;765810;183;919163;-67
2022/04/23 11:45:23;;;;;;;14.77;11.10;;;;;;;;;;759116;182;918885;-65
2022/04/23 11:47:47;;;;;;;15.53;9.87;;;;;;;;;;755454;183;919245;-66
2022/04/23 11:50:16;;;;;;;17.02;10.50;;;;;;;;;;758900;184;941701;-65
2022/04/23 11:52:42;;;;;;;11.73;6.97;;;;;;;;;;762286;183;1020676;-67
2022/04/23 11:55:08;;;;;;;16.20;11.07;;;;;;;;;;750402;184;1124156;-65
2022/04/23 11:57:34;;;;;;;15.43;10.67;;;;;;;;;;759898;183;919350;-65
2022/04/23 11:59:59;;;;;;;19.70;10.70;;;;;;;;;;755988;184;919109;-64
2022/04/23 12:02:26;;;;;;;17.15;10.82;;;;;;;;;;750367;184;918872;-65
2022/04/23 12:04:52;;;;;;;17.73;10.00;;;;;;;;;;758620;184;917907;-66
2022/04/23 12:07:18;;;;;;;11.80;7.93;;;;;;;;;;758772;184;919213;-65
2022/04/23 12:09:49;;;;;;;14.70;9.80;;;;;;;;;;758763;183;1002278;-65
2022/04/23 12:12:14;;;;;;;12.33;9.80;;;;;;;;;;758557;184;940096;-66
2022/04/23 12:14:44;;;;;;;16.73;11.50;;;;;;;;;;755291;183;917124;-65
2022/04/23 12:17:09;;;;;;;13.57;10.33;;;;;;;;;;762241;183;919026;-63
2022/04/23 12:19:35;;;;;;;14.43;8.00;;;;;;;;;;751484;185;921683;-65
2022/04/23 12:22:01;;;;;;;11.63;8.30;;;;;;;;;;764384;183;946569;-66
2022/04/23 12:24:29;;;;;;;11.75;8.38;;;;;;;;;;763575;184;953756;-65
2022/04/23 12:26:55;;;;;;;13.33;8.10;;;;;;;;;;764313;180;900994;-66
2022/04/23 12:42:10;;;;;;;12.30;9.50;;;;;;;;;;748607;184;916954;-66
2022/04/23 12:44:42;;;;;;;13.55;8.55;;;;;;;;;;749208;183;916092;-66
2022/04/23 12:47:08;;;;;;;13.67;8.93;;;;;;;;;;743894;184;1015827;-65
2022/04/23 12:49:40;;;;;;;17.10;8.70;;;;;;;;;;760169;182;919078;-65
2022/04/23 12:52:06;;;;;;;13.70;9.13;;;;;;;;;;756395;182;919478;-67
2022/04/23 12:54:32;;;;;;;49.23;19.67;;;;;;;;;;748419;183;914281;-67
2022/04/23 12:56:58;;;;;;;25.67;12.80;;;;;;;;;;758116;180;1021523;-67
2022/04/23 12:59:24;;;;;;;16.73;10.37;;;;;;;;;;748070;187;918478;-66
2022/04/23 13:01:50;;;;;;;18.27;10.80;;;;;;;;;;760265;183;918426;-67
2022/04/23 13:04:17;;;;;;;14.02;9.80;;;;;;;;;;763045;183;918743;-66
2022/04/23 13:09:13;;;;;;;14.87;9.63;;;;;;;;;;760556;183;918727;-67
2022/04/23 13:11:39;;;;;;;12.00;8.10;;;;;;;;;;760062;183;918432;-64
2022/04/23 13:14:05;;;;;;;11.67;8.77;;;;;;;;;;762453;183;919328;-67
2022/04/23 13:16:30;;;;;;;14.50;8.47;;;;;;;;;;768399;183;920016;-65
2022/04/23 13:18:56;;;;;;;15.20;9.63;;;;;;;;;;761783;183;1020851;-67
2022/04/23 13:21:22;;;;;;;10.93;7.63;;;;;;;;;;757513;183;920027;-66
2022/04/23 13:23:49;;;;;;;13.60;7.30;;;;;;;;;;755103;184;925446;-66
2022/04/23 13:26:14;;;;;;;11.93;7.77;;;;;;;;;;758948;184;918453;-65
2022/04/23 13:28:40;;;;;;;13.60;9.90;;;;;;;;;;761773;183;918084;-65
2022/04/23 13:31:06;;;;;;;12.03;8.30;;;;;;;;;;760291;184;924466;-64
2022/04/23 13:33:31;;;;;;;11.87;8.80;;;;;;;;;;754011;184;920176;-66
2022/04/23 13:35:57;;;;;;;12.60;8.60;;;;;;;;;;752656;184;918938;-64
2022/04/23 13:38:23;;;;;;;14.20;8.93;;;;;;;;;;763718;183;919414;-67
2022/04/23 13:40:49;;;;;;;18.43;10.03;;;;;;;;;;758978;184;918363;-66
2022/04/23 13:43:15;;;;;;;15.57;8.17;;;;;;;;;;758403;183;916952;-67
2022/04/23 13:45:41;;;;;;;11.40;7.40;;;;;;;;;;756527;184;928024;-64
2022/04/23 13:48:07;;;;;;;13.37;8.60;;;;;;;;;;761648;184;919868;-66
2022/04/23 13:50:33;;;;;;;11.00;7.93;;;;;;;;;;760154;184;919281;-66
2022/04/23 13:52:59;;;;;;;12.87;8.50;;;;;;;;;;756768;184;920276;-65
2022/04/23 13:55:25;;;;;;;24.33;15.07;;;;;;;;;;760587;184;919073;-66
2022/04/23 13:57:50;;;;;;;18.20;11.90;;;;;;;;;;759892;183;918142;-67
2022/04/23 14:00:17;;;;;;;12.17;8.50;;;;;;;;;;749160;184;1020707;-65
2022/04/23 14:10:18;;;;;;;8.23;6.10;;;;;;;;;;758758;183;918058;-67
2022/04/23 14:12:44;;;;;;;7.97;5.63;;;;;;;;;;758920;183;918603;-62
2022/04/23 14:15:10;;;;;;;8.23;5.83;;;;;;;;;;757684;184;919827;-66
2022/04/23 14:17:36;;;;;;;11.53;7.70;;;;;;;;;;749066;184;919129;-67
2022/04/23 14:20:01;;;;;;;11.47;7.73;;;;;;;;;;752666;184;918590;-66
2022/04/23 14:22:27;;;;;;;13.80;9.87;;;;;;;;;;753159;184;984575;-66
2022/04/23 14:24:54;;;;;;;11.20;7.33;;;;;;;;;;762167;183;918943;-67
2022/04/23 14:27:19;;;;;;;11.47;7.17;;;;;;;;;;757096;184;919500;-65
2022/04/23 14:29:45;;;;;;;19.57;7.70;;;;;;;;;;763267;184;918071;-66
2022/04/23 14:32:11;;;;;;;11.50;7.47;;;;;;;;;;753944;184;919499;-67
2022/04/23 14:34:37;;;;;;;11.90;7.53;;;;;;;;;;753931;184;918468;-67
2022/04/23 14:37:02;;;;;;;10.60;7.20;;;;;;;;;;755044;184;918803;-66
2022/04/23 14:39:29;;;;;;;8.00;6.50;;;;;;;;;;763429;183;919311;-66
2022/04/23 14:41:54;;;;;;;8.53;7.13;;;;;;;;;;756790;184;918838;-66
2022/04/23 14:44:20;;;;;;;11.50;7.30;;;;;;;;;;753229;183;919175;-66
2022/04/23 14:46:46;;;;;;;11.60;6.50;;;;;;;;;;761388;183;918707;-66